KBPT/BPT METAR and TAF weather

Enter ICAO airport designator
Station Type Date Time Source
KBPT METAR 2022/09/28 18:53 UTC NOAA

KBPT 281853Z 04008G18KT 10SM CLR 30/09 A3018 RMK AO2 SLP220 T03000089 $


Station Type Date Time Source
KBPT Decoded METAR 2022/09/28 18:53 UTC NOAA

SOUTHEAST TEXAS RGNL AIRPORT, TX, United States (KBPT) 29-95N 094-08W 5M
Sep 28, 2022 - 02:53 PM EDT / 2022.09.28 1853 UTC
Wind: from the NE (040 degrees) at 9 MPH (8 KT) gusting to 21 MPH (18 KT):0
Visibility: 10 mile(s):0
Sky conditions: clear
Temperature: 86.0 F (30.0 C)
Dew Point: 48.0 F (8.9 C)
Relative Humidity: 26%
Pressure (altimeter): 30.18 in. Hg (1022 hPa)
ob: KBPT 281853Z 04008G18KT 10SM CLR 30/09 A3018 RMK AO2 SLP220 T03000089
cycle: 19

Station Type Date Time Source
KBPT TAF 2022/09/28 18:24 UTC NOAA

TAF KBPT 281723Z 2818/2918 04010G15KT P6SM SKC
FM282300 03007KT P6SM SKC

Example: see airport list